Time;durP1;ratioP1;P1;durP2;ratioP2;P2;SDS_P1;SDS_P2;PMS_P1;PMS_P2;Temp;Humidity;BMP_temperature;BMP_pressure;BME280_temperature;BME280_humidity;BME280_pressure;Samples;Min_cycle;Max_cycle;Signal;HPM_P1;HPM_P2
2021/10/07 00:02:04;;;;;;;15.77;7.75;;;;;;;12.76;100.00;101974.13;5118132;28;20035;-74
2021/10/07 00:04:49;;;;;;;12.75;7.85;;;;;;;13.09;100.00;101976.53;5117946;28;20089;-75
2021/10/07 00:07:36;;;;;;;23.02;8.27;;;;;;;12.76;100.00;101979.38;5118058;28;20031;-73
2021/10/07 00:10:22;;;;;;;16.30;7.70;;;;;;;13.00;100.00;101985.41;5101553;28;20455;-74
2021/10/07 00:13:08;;;;;;;13.25;7.68;;;;;;;12.92;100.00;101987.19;5117082;28;20027;-75
2021/10/07 00:15:54;;;;;;;14.82;7.72;;;;;;;13.07;100.00;101986.22;5117252;28;20031;-74
2021/10/07 00:18:41;;;;;;;15.75;8.00;;;;;;;12.84;100.00;101985.47;5117059;28;20063;-75
2021/10/07 00:21:27;;;;;;;17.02;7.93;;;;;;;12.96;100.00;101983.66;5117895;28;20031;-75
2021/10/07 00:24:13;;;;;;;15.93;8.02;;;;;;;13.31;100.00;101979.00;5117590;28;20023;-74
2021/10/07 00:26:58;;;;;;;16.13;8.30;;;;;;;13.05;100.00;101985.34;5117683;28;20429;-74
2021/10/07 00:29:46;;;;;;;20.40;8.23;;;;;;;12.82;100.00;101987.25;5117282;28;20471;-74
2021/10/07 00:32:35;;;;;;;17.33;8.30;;;;;;;13.23;100.00;101982.59;5116710;28;20066;-74
2021/10/07 00:41:26;;;;;;;14.13;8.20;;;;;;;13.20;100.00;101982.63;5117049;28;20046;-74
2021/10/07 00:44:12;;;;;;;16.60;8.60;;;;;;;13.12;100.00;101989.69;5103314;28;20011;-75
2021/10/07 00:47:02;;;;;;;17.30;8.45;;;;;;;13.12;100.00;101990.56;5116838;28;20359;-74
2021/10/07 00:49:48;;;;;;;16.75;9.07;;;;;;;13.14;100.00;101985.31;5102419;28;20100;-72
2021/10/07 00:52:33;;;;;;;18.83;9.38;;;;;;;13.61;100.00;101989.25;5116359;28;20106;-74
2021/10/07 00:55:19;;;;;;;24.27;8.82;;;;;;;13.42;100.00;101989.47;5116996;28;20111;-74
2021/10/07 00:58:06;;;;;;;21.25;8.80;;;;;;;13.65;100.00;101983.06;5117564;28;20027;-74
2021/10/07 01:00:52;;;;;;;13.68;8.18;;;;;;;13.22;100.00;101983.50;5116759;28;20473;-73
2021/10/07 01:03:38;;;;;;;20.55;8.65;;;;;;;13.52;100.00;101981.47;5116399;28;20080;-74
2021/10/07 01:06:24;;;;;;;14.05;8.43;;;;;;;13.84;100.00;101978.50;5115855;28;20024;-74
2021/10/07 01:09:10;;;;;;;16.52;8.82;;;;;;;13.61;100.00;101980.47;5101308;28;20083;-74
2021/10/07 01:11:57;;;;;;;20.02;8.02;;;;;;;14.15;100.00;101977.25;5115671;28;20043;-74
2021/10/07 01:14:52;;;;;;;16.13;8.77;;;;;;;13.95;100.00;101968.72;5116323;28;20051;-74
2021/10/07 01:17:38;;;;;;;14.77;8.43;;;;;;;13.58;100.00;101965.59;5115700;28;20367;-74
2021/10/07 01:20:24;;;;;;;17.75;9.38;;;;;;;13.79;100.00;101965.34;5116453;28;20488;-74
2021/10/07 01:23:10;;;;;;;23.58;9.00;;;;;;;13.81;100.00;101960.97;5115622;28;20455;-74
2021/10/07 01:25:56;;;;;;;24.02;10.27;;;;;;;13.70;100.00;101957.56;5116387;28;20038;-74
2021/10/07 01:28:44;;;;;;;17.52;9.68;;;;;;;13.49;100.00;101960.41;5115667;28;20023;-74
2021/10/07 01:31:30;;;;;;;21.65;10.48;;;;;;;13.54;100.00;101968.25;5115569;28;20028;-74
2021/10/07 01:34:24;;;;;;;24.27;9.93;;;;;;;13.62;100.00;101969.03;5116000;28;20375;-74
2021/10/07 01:37:10;;;;;;;28.48;10.05;;;;;;;13.97;100.00;101975.72;5115394;28;20115;-74
2021/10/07 01:39:56;;;;;;;25.02;9.40;;;;;;;13.86;100.00;101972.31;5116493;28;20111;-73
2021/10/07 01:42:42;;;;;;;20.85;9.00;;;;;;;13.53;100.00;101970.03;5115803;28;20027;-74
2021/10/07 01:45:28;;;;;;;21.65;8.82;;;;;;;13.25;100.00;101968.53;5116043;28;20015;-75
2021/10/07 01:48:14;;;;;;;28.35;9.57;;;;;;;13.31;100.00;101965.81;5114435;28;20460;-74
2021/10/07 01:51:00;;;;;;;22.33;9.13;;;;;;;13.47;100.00;101966.59;5115463;28;20434;-74
2021/10/07 01:53:46;;;;;;;26.77;9.27;;;;;;;13.46;100.00;101967.44;5115119;28;20097;-74
2021/10/07 01:56:33;;;;;;;21.80;9.85;;;;;;;12.97;100.00;101969.63;5116266;28;20024;-74
2021/10/07 01:59:19;;;;;;;26.80;9.73;;;;;;;13.14;100.00;101967.75;5115076;28;20022;-73
2021/10/07 02:02:05;;;;;;;32.05;10.82;;;;;;;13.15;100.00;101966.84;5115645;28;20023;-75
2021/10/07 02:04:51;;;;;;;20.40;10.10;;;;;;;13.14;100.00;101983.53;5114326;28;20066;-74
2021/10/07 02:07:36;;;;;;;22.58;10.00;;;;;;;12.67;100.00;101992.59;5115444;28;20028;-74
2021/10/07 02:10:22;;;;;;;23.65;9.38;;;;;;;13.02;100.00;102001.19;5099996;28;20048;-74
2021/10/07 02:13:08;;;;;;;23.80;10.80;;;;;;;13.35;100.00;101985.13;5115367;28;20031;-74
2021/10/07 02:15:54;;;;;;;20.70;9.32;;;;;;;13.36;100.00;101992.13;5114000;28;20055;-76
2021/10/07 02:18:40;;;;;;;29.55;10.35;;;;;;;12.94;100.00;101992.44;5114363;28;20097;-74
2021/10/07 02:21:26;;;;;;;25.20;10.07;;;;;;;12.72;100.00;102002.22;5099963;28;20035;-74
2021/10/07 02:24:12;;;;;;;31.10;9.52;;;;;;;12.65;100.00;101997.88;5113875;28;20436;-74
2021/10/07 02:26:57;;;;;;;28.92;10.43;;;;;;;12.75;100.00;102004.84;5114964;28;20444;-74
2021/10/07 02:29:43;;;;;;;26.55;9.75;;;;;;;12.86;100.00;102002.97;5113882;28;20024;-74
2021/10/07 02:32:29;;;;;;;29.60;10.23;;;;;;;13.03;100.00;102016.94;5114516;28;20031;-74
2021/10/07 02:35:15;;;;;;;24.88;9.88;;;;;;;12.57;100.00;102022.44;5114289;28;20360;-74
2021/10/07 02:38:03;;;;;;;24.52;9.93;;;;;;;12.79;100.00;102017.09;5115444;28;20024;-74
2021/10/07 02:40:48;;;;;;;31.42;9.77;;;;;;;13.26;100.00;102004.47;5115014;28;20028;-74
2021/10/07 02:43:34;;;;;;;22.92;8.85;;;;;;;12.76;100.00;101988.16;5115068;28;20034;-74
2021/10/07 02:46:20;;;;;;;30.42;9.07;;;;;;;12.50;100.00;101981.31;5115497;28;20015;-74
2021/10/07 02:49:06;;;;;;;21.70;8.65;;;;;;;12.44;100.00;101984.84;5114767;28;20030;-74
2021/10/07 02:51:51;;;;;;;28.10;8.82;;;;;;;12.65;100.00;101984.72;5114326;28;20023;-73
2021/10/07 02:54:37;;;;;;;26.45;8.30;;;;;;;12.63;100.00;101980.34;5100113;28;20355;-74
2021/10/07 02:57:23;;;;;;;26.02;8.60;;;;;;;12.61;100.00;101977.72;5114420;28;20040;-75
2021/10/07 03:00:10;;;;;;;25.85;8.50;;;;;;;12.27;100.00;101967.41;5114668;28;20080;-74
2021/10/07 03:02:56;;;;;;;21.92;8.70;;;;;;;12.28;100.00;101979.66;5099999;28;20084;-73
2021/10/07 03:05:42;;;;;;;24.88;9.00;;;;;;;12.07;100.00;101962.25;5098880;28;20515;-74
2021/10/07 03:08:28;;;;;;;26.27;8.05;;;;;;;12.28;100.00;101969.13;5114937;28;20030;-74
2021/10/07 03:11:14;;;;;;;24.17;8.02;;;;;;;12.13;100.00;101969.22;5113598;28;20341;-75
2021/10/07 03:14:00;;;;;;;22.38;8.38;;;;;;;12.31;100.00;101975.28;5115317;28;20042;-74
2021/10/07 03:16:46;;;;;;;29.08;8.65;;;;;;;12.23;100.00;101966.56;5114469;28;20038;-73
2021/10/07 03:19:32;;;;;;;21.63;8.35;;;;;;;12.57;100.00;101972.47;5114467;28;20035;-74
2021/10/07 03:22:18;;;;;;;31.17;9.27;;;;;;;12.45;100.00;101969.91;5115153;28;20031;-75
2021/10/07 03:25:04;;;;;;;22.90;8.90;;;;;;;12.12;100.00;101976.22;5114348;28;20034;-75
2021/10/07 03:27:50;;;;;;;25.27;9.43;;;;;;;12.15;100.00;101978.84;5114722;28;20168;-75
2021/10/07 03:30:36;;;;;;;26.25;10.00;;;;;;;12.08;100.00;101977.09;5114336;28;20019;-74
2021/10/07 03:33:22;;;;;;;27.73;10.40;;;;;;;11.97;100.00;101978.88;5113452;28;20073;-75
2021/10/07 03:36:08;;;;;;;38.80;10.40;;;;;;;11.81;100.00;101977.19;5114244;28;20058;-73
2021/10/07 03:38:54;;;;;;;23.08;9.43;;;;;;;11.73;100.00;101985.97;5114382;28;20027;-74
2021/10/07 03:41:39;;;;;;;29.73;9.80;;;;;;;11.70;100.00;101988.59;5114149;28;20023;-74
2021/10/07 03:44:25;;;;;;;30.42;8.75;;;;;;;11.89;100.00;101985.06;5114797;28;20020;-74
2021/10/07 03:47:11;;;;;;;21.73;8.88;;;;;;;11.94;100.00;101986.78;5114439;28;20046;-75
2021/10/07 03:49:57;;;;;;;23.13;9.15;;;;;;;11.84;100.00;101984.19;5114741;28;20055;-74
2021/10/07 03:52:43;;;;;;;28.30;9.50;;;;;;;12.02;100.00;101974.50;5114038;28;20031;-74
2021/10/07 03:55:29;;;;;;;29.17;9.95;;;;;;;11.91;100.00;101968.41;5099133;28;20517;-74
2021/10/07 03:58:15;;;;;;;31.08;10.70;;;;;;;11.64;100.00;101965.84;5113553;28;20333;-74
2021/10/07 04:01:01;;;;;;;27.58;10.38;;;;;;;11.92;100.00;101959.66;5113961;28;20020;-73
2021/10/07 04:03:47;;;;;;;31.25;10.55;;;;;;;12.02;100.00;101965.75;5112723;28;20058;-74
2021/10/07 04:06:33;;;;;;;24.80;9.88;;;;;;;11.77;100.00;101956.22;5112516;28;20104;-73
2021/10/07 04:09:18;;;;;;;31.67;11.00;;;;;;;11.62;100.00;101962.34;5114274;28;20345;-74
2021/10/07 04:12:04;;;;;;;32.03;11.18;;;;;;;11.81;100.00;101968.44;5116802;28;20460;-75
2021/10/07 04:14:50;;;;;;;27.10;10.68;;;;;;;12.20;100.00;101963.03;5117516;28;20047;-74
2021/10/07 04:17:36;;;;;;;30.17;11.60;;;;;;;12.08;100.00;101965.72;5117152;28;20027;-74
2021/10/07 04:20:22;;;;;;;30.92;10.48;;;;;;;12.31;100.00;101972.66;5117626;28;20028;-74
2021/10/07 04:23:09;;;;;;;39.00;11.10;;;;;;;12.44;100.00;101982.22;5102551;28;20035;-74
2021/10/07 04:25:55;;;;;;;25.85;9.85;;;;;;;12.28;100.00;101977.91;5116463;28;20372;-74
2021/10/07 04:28:41;;;;;;;28.13;9.52;;;;;;;12.10;100.00;101991.09;5116876;28;20032;-74
2021/10/07 04:31:27;;;;;;;32.58;9.35;;;;;;;12.35;100.00;101994.50;5117182;28;20087;-74
2021/10/07 04:34:13;;;;;;;32.88;10.02;;;;;;;12.07;100.00;101985.00;5118324;28;20042;-73
2021/10/07 04:36:59;;;;;;;32.08;10.30;;;;;;;12.19;100.00;101984.94;5102158;28;20478;-74
2021/10/07 04:39:44;;;;;;;28.85;9.85;;;;;;;12.37;100.00;101988.38;5101069;28;20069;-75
2021/10/07 04:42:30;;;;;;;30.27;10.45;;;;;;;12.88;100.00;101989.84;5116794;28;20032;-74
2021/10/07 04:45:16;;;;;;;27.27;9.52;;;;;;;12.65;100.00;101997.88;5117192;28;20432;-75
2021/10/07 04:48:02;;;;;;;33.55;10.30;;;;;;;12.15;100.00;101985.84;5116692;28;20096;-74
2021/10/07 04:50:48;;;;;;;34.92;10.38;;;;;;;11.79;100.00;101983.31;5101708;28;20035;-75
2021/10/07 04:53:36;;;;;;;28.85;9.73;;;;;;;12.01;100.00;101978.00;5101960;28;20066;-73
2021/10/07 04:56:22;;;;;;;32.58;10.95;;;;;;;12.49;100.00;101993.56;5116724;28;20043;-74
2021/10/07 04:59:08;;;;;;;31.42;10.70;;;;;;;12.54;100.00;101997.03;5116999;28;20020;-73
2021/10/07 05:01:54;;;;;;;30.90;12.60;;;;;;;12.68;100.00;101989.06;5115692;28;20115;-73
2021/10/07 05:04:39;;;;;;;29.98;11.90;;;;;;;12.43;100.00;101990.09;5116633;28;20023;-74
2021/10/07 05:07:25;;;;;;;32.42;11.02;;;;;;;12.37;100.00;101992.75;5101031;28;20030;-74
2021/10/07 05:10:11;;;;;;;34.88;11.23;;;;;;;12.63;100.00;101990.88;5115154;28;20048;-74
2021/10/07 05:12:57;;;;;;;31.70;11.00;;;;;;;12.07;100.00;101985.00;5115726;28;20444;-73
2021/10/07 05:15:43;;;;;;;31.48;11.30;;;;;;;12.18;100.00;101994.56;5115868;28;20020;-73
2021/10/07 05:18:29;;;;;;;29.08;12.25;;;;;;;12.46;100.00;101995.34;5116277;28;20110;-74
2021/10/07 05:21:15;;;;;;;28.52;12.20;;;;;;;12.36;100.00;101993.63;5100287;28;20443;-73
2021/10/07 05:24:00;;;;;;;35.40;13.10;;;;;;;12.46;100.00;101990.09;5116282;28;20122;-73
2021/10/07 05:26:46;;;;;;;31.90;11.57;;;;;;;12.39;100.00;101989.25;5115019;28;20367;-73
2021/10/07 05:29:32;;;;;;;34.50;11.98;;;;;;;12.17;100.00;101987.56;5100671;28;20103;-73
2021/10/07 05:32:18;;;;;;;31.65;11.40;;;;;;;12.04;100.00;101982.38;5115794;28;20035;-73
2021/10/07 05:35:05;;;;;;;28.50;10.50;;;;;;;12.15;100.00;101997.22;5116328;28;20027;-74
2021/10/07 05:37:51;;;;;;;33.65;9.68;;;;;;;12.19;100.00;101995.47;5116613;28;20102;-74
2021/10/07 05:40:37;;;;;;;25.05;9.52;;;;;;;12.14;100.00;101990.22;5115747;28;20080;-74
2021/10/07 05:43:23;;;;;;;26.90;10.23;;;;;;;12.42;100.00;101998.88;5116280;28;20337;-74
2021/10/07 05:46:09;;;;;;;31.48;10.48;;;;;;;12.68;100.00;102003.13;5114866;28;20024;-74
2021/10/07 05:48:54;;;;;;;31.17;11.55;;;;;;;12.74;100.00;101982.03;5115835;28;20023;-75
2021/10/07 05:51:41;;;;;;;30.52;9.70;;;;;;;12.81;100.00;101975.84;5115037;28;20035;-74
2021/10/07 05:54:27;;;;;;;26.73;10.90;;;;;;;12.49;100.00;101977.78;5114890;28;20110;-74
2021/10/07 05:57:13;;;;;;;31.30;11.70;;;;;;;12.50;100.00;101978.69;5115028;28;20039;-75
2021/10/07 05:59:59;;;;;;;30.38;9.82;;;;;;;12.48;100.00;101989.19;5099870;28;20027;-74
2021/10/07 06:02:44;;;;;;;37.63;10.10;;;;;;;12.52;100.00;101983.03;5101209;28;20023;-74
2021/10/07 06:05:30;;;;;;;31.48;10.70;;;;;;;12.71;100.00;101996.97;5115518;28;20104;-74
2021/10/07 06:08:16;;;;;;;22.67;9.18;;;;;;;12.92;100.00;101991.56;5114706;28;20028;-73
2021/10/07 06:11:02;;;;;;;31.45;10.63;;;;;;;12.98;100.00;101986.31;5115265;28;20050;-74
2021/10/07 06:13:48;;;;;;;32.63;12.00;;;;;;;13.13;100.00;101989.69;5114565;28;20035;-73
2021/10/07 06:16:38;;;;;;;32.67;11.82;;;;;;;13.17;100.00;101983.50;5113952;28;20028;-74
2021/10/07 06:19:26;;;;;;;42.45;11.63;;;;;;;13.05;100.00;101994.13;5100743;28;20087;-73
2021/10/07 06:22:13;;;;;;;32.25;12.00;;;;;;;13.13;100.00;101989.69;5099811;28;20039;-73
2021/10/07 06:24:59;;;;;;;32.72;12.18;;;;;;;13.44;100.00;101992.94;5114925;28;20027;-73
2021/10/07 06:27:47;;;;;;;36.75;11.63;;;;;;;13.35;100.00;101995.66;5115696;28;20034;-74
2021/10/07 06:30:34;;;;;;;33.30;11.68;;;;;;;13.33;100.00;102000.94;5115695;28;20051;-73
2021/10/07 06:33:20;;;;;;;28.35;11.70;;;;;;;13.21;100.00;102001.03;5114877;28;20451;-74
2021/10/07 06:36:06;;;;;;;37.90;12.13;;;;;;;13.36;100.00;101992.13;5114313;28;20027;-74
2021/10/07 06:38:52;;;;;;;42.05;12.18;;;;;;;13.40;100.00;101991.22;5114993;28;20023;-75
2021/10/07 06:41:37;;;;;;;46.60;12.27;;;;;;;13.74;100.00;101996.16;5114927;28;20019;-74
2021/10/07 06:44:23;;;;;;;29.55;11.23;;;;;;;13.62;100.00;102009.44;5114997;28;20031;-74
2021/10/07 06:47:09;;;;;;;35.55;11.82;;;;;;;13.95;100.00;102014.34;5114650;28;20351;-74
2021/10/07 06:49:55;;;;;;;35.25;12.15;;;;;;;13.76;100.00;102018.09;5114789;28;20032;-73
2021/10/07 06:52:41;;;;;;;30.60;11.25;;;;;;;13.86;100.00;102006.56;5114677;28;20516;-73
2021/10/07 06:55:27;;;;;;;25.83;10.05;;;;;;;13.86;100.00;102011.81;5099857;28;20019;-74
2021/10/07 06:58:13;;;;;;;40.22;11.20;;;;;;;14.07;100.00;102000.19;5114999;28;20085;-74
2021/10/07 07:00:59;;;;;;;27.92;9.38;;;;;;;14.12;100.00;102007.13;5114396;28;20023;-74
2021/10/07 07:03:52;;;;;;;29.65;9.98;;;;;;;14.60;100.00;102009.19;5115315;28;20417;-75
2021/10/07 07:06:38;;;;;;;35.55;10.25;;;;;;;14.26;100.00;102009.66;5098731;28;20424;-74
2021/10/07 07:09:24;;;;;;;24.25;9.65;;;;;;;14.33;100.00;102006.06;5114743;28;20118;-74
2021/10/07 07:12:10;;;;;;;35.28;10.52;;;;;;;14.06;100.00;102006.34;5113958;28;20071;-73
2021/10/07 07:14:56;;;;;;;30.55;10.05;;;;;;;14.29;100.00;102007.88;5115762;28;20023;-76
2021/10/07 07:17:42;;;;;;;29.58;10.10;;;;;;;14.46;100.00;102002.34;5114228;28;20035;-75
2021/10/07 07:20:27;;;;;;;26.70;10.20;;;;;;;14.46;100.00;101997.09;5113435;28;20046;-74
2021/10/07 07:23:13;;;;;;;29.95;10.35;;;;;;;14.34;100.00;102000.75;5114897;28;20106;-75
2021/10/07 07:25:59;;;;;;;30.10;8.10;;;;;;;14.29;100.00;101999.97;5113953;28;20038;-75
2021/10/07 07:28:45;;;;;;;24.83;8.60;;;;;;;14.21;100.00;101991.25;5113926;28;20023;-74
2021/10/07 07:31:31;;;;;;;29.88;8.63;;;;;;;14.32;100.00;102010.44;5099182;28;20056;-73
2021/10/07 07:34:16;;;;;;;30.08;8.90;;;;;;;14.32;100.00;102005.16;5115111;28;20043;-73
2021/10/07 07:37:03;;;;;;;29.42;8.82;;;;;;;14.53;100.00;101998.75;5113996;28;20423;-75
2021/10/07 07:39:48;;;;;;;28.67;9.85;;;;;;;14.67;100.00;101997.69;5101368;28;20035;-74
2021/10/07 07:42:34;;;;;;;23.05;8.40;;;;;;;14.70;100.00;101991.47;5116559;28;20516;-76
2021/10/07 07:45:20;;;;;;;22.65;8.88;;;;;;;14.62;100.00;101993.34;5118888;28;20019;-74
2021/10/07 07:48:06;;;;;;;26.02;8.48;;;;;;;14.32;100.00;101994.63;5118988;28;20043;-74
2021/10/07 07:50:53;;;;;;;25.38;8.80;;;;;;;14.15;100.00;101995.72;5117891;28;20464;-75
2021/10/07 07:53:39;;;;;;;23.73;8.70;;;;;;;14.31;100.00;101998.16;5119091;28;20043;-75
2021/10/07 07:56:25;;;;;;;27.88;8.65;;;;;;;14.39;100.00;102006.84;5103484;28;20049;-74
2021/10/07 07:59:11;;;;;;;26.38;8.45;;;;;;;14.41;100.00;102004.19;5118064;28;20031;-75
2021/10/07 08:01:57;;;;;;;25.27;8.20;;;;;;;14.57;100.00;102003.97;5117378;28;20027;-75
2021/10/07 08:04:44;;;;;;;31.65;9.32;;;;;;;14.41;100.00;102005.06;5118302;28;20031;-74
2021/10/07 08:07:30;;;;;;;22.15;8.65;;;;;;;14.88;100.00;102001.78;5118244;28;20372;-75
2021/10/07 08:10:16;;;;;;;26.38;8.68;;;;;;;14.68;100.00;101993.28;5104263;28;20413;-76
2021/10/07 08:13:02;;;;;;;33.72;9.70;;;;;;;14.55;100.00;102010.19;5117742;28;20023;-73
2021/10/07 08:15:50;;;;;;;27.27;9.60;;;;;;;15.16;100.00;102007.50;5118220;28;20024;-74
2021/10/07 08:18:36;;;;;;;32.28;9.18;;;;;;;14.99;100.00;102020.09;5116929;28;20099;-75
2021/10/07 08:21:21;;;;;;;21.95;8.27;;;;;;;15.09;100.00;101998.81;5117656;28;20023;-74
2021/10/07 08:24:10;;;;;;;30.50;8.32;;;;;;;15.51;100.00;101995.50;5117470;28;20028;-73
2021/10/07 08:26:56;;;;;;;21.35;7.63;;;;;;;15.43;100.00;101996.53;5101999;28;20027;-73
2021/10/07 08:29:42;;;;;;;27.98;8.13;;;;;;;15.48;100.00;102006.13;5102499;28;20019;-74
2021/10/07 08:32:28;;;;;;;32.67;9.88;;;;;;;15.06;100.00;102009.41;5117082;28;20111;-73
2021/10/07 08:35:14;;;;;;;31.05;8.80;;;;;;;15.29;100.00;101999.38;5117700;28;20074;-74
2021/10/07 08:38:00;;;;;;;32.22;11.45;;;;;;;15.26;100.00;101995.91;5117195;28;20058;-73
2021/10/07 08:40:46;;;;;;;29.05;11.35;;;;;;;15.47;100.00;101992.94;5116036;28;20043;-72
2021/10/07 08:43:33;;;;;;;30.45;9.48;;;;;;;14.99;100.00;102020.09;5118198;28;20030;-74
2021/10/07 08:46:20;;;;;;;28.05;9.57;;;;;;;15.02;100.00;102018.28;5117637;28;20019;-73
2021/10/07 08:49:07;;;;;;;53.45;9.55;;;;;;;14.53;100.00;102020.75;5116346;28;20020;-74
2021/10/07 08:51:54;;;;;;;32.20;9.30;;;;;;;14.67;100.00;102026.69;5117398;28;20027;-73
2021/10/07 08:54:41;;;;;;;27.35;9.25;;;;;;;14.75;100.00;102027.47;5117389;28;20031;-74
2021/10/07 08:57:27;;;;;;;24.08;8.55;;;;;;;14.75;100.00;102027.47;5100309;28;20035;-73
2021/10/07 09:00:15;;;;;;;23.25;7.63;;;;;;;14.95;100.00;102021.91;5116447;28;20042;-73
2021/10/07 09:03:30;;;;;;;25.77;8.10;;;;;;;15.17;100.00;102027.72;5116369;28;20471;-74
2021/10/07 09:06:19;;;;;;;38.15;9.15;;;;;;;15.35;100.00;102041.53;5109388;28;20055;-75
2021/10/07 09:09:06;;;;;;;25.92;8.68;;;;;;;14.93;100.00;102052.72;5116407;28;20019;-73
2021/10/07 09:11:55;;;;;;;28.15;9.30;;;;;;;14.78;100.00;102053.81;5101381;28;20040;-73
2021/10/07 09:14:45;;;;;;;24.35;9.85;;;;;;;15.24;100.00;102055.78;5115704;28;20046;-74
2021/10/07 09:17:31;;;;;;;39.55;9.38;;;;;;;14.97;100.00;102051.78;5110671;28;20448;-73
2021/10/07 12:06:10;;;;;;;33.33;12.35;;;;;;;16.50;100.00;101984.75;5799141;23;20157;-75
2021/10/07 12:08:56;;;;;;;30.58;10.40;;;;;;;16.00;100.00;101993.72;4887248;29;20138;-74
2021/10/07 12:11:42;;;;;;;25.38;9.02;;;;;;;16.32;100.00;101999.19;4886699;29;20024;-74
2021/10/07 12:14:32;;;;;;;26.77;8.48;;;;;;;16.22;100.00;101997.66;4887209;29;20073;-74
2021/10/07 12:17:17;;;;;;;23.17;8.38;;;;;;;16.64;100.00;102014.47;4883832;29;20124;-74
2021/10/07 12:20:04;;;;;;;21.42;6.60;;;;;;;16.16;100.00;102003.06;4881885;29;20328;-74
2021/10/07 12:22:49;;;;;;;26.15;6.90;;;;;;;16.45;100.00;102000.75;4881603;29;20036;-73
2021/10/07 12:25:43;;;;;;;21.45;5.95;;;;;;;16.52;100.00;102001.50;4881665;29;20056;-75
2021/10/07 12:28:29;;;;;;;17.85;5.68;;;;;;;16.45;100.00;102013.09;4881963;29;20482;-75
2021/10/07 12:31:20;;;;;;;21.13;6.05;;;;;;;16.35;100.00;102011.53;4883271;29;20037;-74
2021/10/07 12:34:09;;;;;;;22.60;5.93;;;;;;;16.65;100.00;102002.97;4884987;29;20513;-74
2021/10/07 12:36:58;;;;;;;29.40;5.88;;;;;;;16.41;100.00;102001.72;4870745;29;20037;-74
2021/10/07 12:39:53;;;;;;;19.02;5.85;;;;;;;16.08;100.00;101991.75;4885076;29;20037;-76
2021/10/07 12:42:46;;;;;;;27.02;6.40;;;;;;;16.47;100.00;101998.06;4884452;29;20074;-77
2021/10/07 12:45:32;;;;;;;25.00;6.35;;;;;;;16.39;100.00;102006.13;4885249;29;20340;-75
2021/10/07 12:48:18;;;;;;;24.35;5.18;;;;;;;16.36;100.00;102006.19;4884469;29;20040;-74
2021/10/07 12:51:11;;;;;;;18.05;4.88;;;;;;;16.55;100.00;102001.44;4871035;29;20025;-74
2021/10/07 12:53:57;;;;;;;24.00;4.63;;;;;;;16.16;100.00;101997.78;4870572;29;20431;-74
2021/10/07 12:56:46;;;;;;;21.13;4.95;;;;;;;16.41;100.00;102000.84;4884441;29;20048;-74
2021/10/07 12:59:55;;;;;;;20.75;5.65;;;;;;;16.50;100.00;101998.88;4884293;29;20040;-73
2021/10/07 13:02:41;;;;;;;26.27;6.68;;;;;;;16.46;100.00;101991.03;4884461;29;20447;-73
2021/10/07 13:05:33;;;;;;;27.92;7.35;;;;;;;16.49;100.00;101990.97;4869785;29;20024;-73
2021/10/07 13:08:20;;;;;;;22.90;6.78;;;;;;;16.48;100.00;101994.53;4884251;29;20113;-73
2021/10/07 13:11:06;;;;;;;16.58;5.35;;;;;;;16.06;100.00;101993.59;4884273;29;20057;-72
2021/10/07 13:13:53;;;;;;;34.00;8.68;;;;;;;15.99;100.00;101991.09;4884038;29;20029;-73
2021/10/07 13:16:38;;;;;;;25.98;6.82;;;;;;;16.24;100.00;101993.19;4870296;29;20036;-73
2021/10/07 13:19:24;;;;;;;26.95;5.05;;;;;;;16.36;100.00;102005.31;4883710;29;20375;-73
2021/10/07 13:22:10;;;;;;;23.45;5.68;;;;;;;16.47;100.00;102006.88;4869730;29;20033;-73
2021/10/07 13:24:57;;;;;;;31.20;5.78;;;;;;;16.44;100.00;102000.78;4884087;29;20475;-73
2021/10/07 13:27:46;;;;;;;22.85;5.40;;;;;;;16.48;100.00;102003.31;4883791;29;20032;-73
2021/10/07 13:30:32;;;;;;;26.90;5.75;;;;;;;16.57;100.00;102004.91;4883400;29;20033;-72
2021/10/07 13:33:19;;;;;;;15.35;5.38;;;;;;;16.61;100.00;102006.56;4884175;29;20354;-73
2021/10/07 13:36:05;;;;;;;26.13;5.60;;;;;;;16.40;100.00;102015.78;4869885;29;20037;-71
2021/10/07 13:38:51;;;;;;;21.40;7.20;;;;;;;15.99;100.00;102005.16;4883260;29;20025;-72
2021/10/07 13:41:37;;;;;;;29.45;7.68;;;;;;;15.64;100.00;102001.44;4868844;29;20029;-72
2021/10/07 13:44:23;;;;;;;23.88;7.57;;;;;;;15.71;100.00;101997.81;4883421;29;20029;-73
2021/10/07 13:47:10;;;;;;;28.08;7.18;;;;;;;15.58;100.00;101994.50;4883631;29;20104;-74
2021/10/07 13:49:56;;;;;;;23.45;7.28;;;;;;;15.47;100.00;101983.25;4883801;29;20033;-73
2021/10/07 13:52:41;;;;;;;25.10;7.03;;;;;;;15.66;100.00;101986.41;4883483;29;20033;-73
2021/10/07 13:55:28;;;;;;;28.42;7.07;;;;;;;15.43;100.00;101973.63;4883064;29;20108;-74
2021/10/07 13:58:15;;;;;;;25.60;5.88;;;;;;;15.52;100.00;101978.78;4883770;29;20059;-72
2021/10/07 14:01:04;;;;;;;23.83;5.65;;;;;;;15.45;100.00;101974.47;4882171;29;20063;-74
2021/10/07 14:03:50;;;;;;;20.45;6.03;;;;;;;15.57;100.00;101976.91;4882988;29;20021;-73
2021/10/07 14:06:36;;;;;;;21.48;5.07;;;;;;;15.36;100.00;101972.00;4882691;29;20502;-72
2021/10/07 14:09:22;;;;;;;29.98;6.43;;;;;;;15.34;100.00;101981.69;4870021;29;20037;-74
2021/10/07 14:12:08;;;;;;;28.52;6.38;;;;;;;15.37;100.00;101989.59;4882337;29;20063;-72
2021/10/07 14:14:54;;;;;;;22.25;6.22;;;;;;;15.05;100.00;101997.13;4869623;29;20112;-73
2021/10/07 14:17:40;;;;;;;21.42;6.30;;;;;;;15.39;100.00;101997.50;4882717;29;20434;-72
2021/10/07 14:20:27;;;;;;;23.15;5.50;;;;;;;15.10;100.00;102002.34;4882903;29;20437;-73
2021/10/07 14:23:13;;;;;;;20.05;5.60;;;;;;;15.09;100.00;102000.56;4882601;29;20480;-74
2021/10/07 14:26:00;;;;;;;17.58;5.78;;;;;;;15.06;100.00;102006.78;4882257;29;20469;-75
2021/10/07 14:28:46;;;;;;;18.42;5.63;;;;;;;14.96;100.00;102006.94;4882769;29;20033;-74
2021/10/07 14:31:32;;;;;;;23.50;6.15;;;;;;;14.92;100.00;102002.59;4882412;29;20032;-75
2021/10/07 14:34:18;;;;;;;30.83;5.78;;;;;;;14.93;100.00;102001.69;4868327;29;20089;-74
2021/10/07 14:37:04;;;;;;;23.85;6.32;;;;;;;14.90;100.00;102014.97;4882135;29;20025;-74
2021/10/07 14:39:56;;;;;;;21.42;7.78;;;;;;;14.66;100.00;101998.56;4882731;29;20331;-74
2021/10/07 14:42:46;;;;;;;24.50;6.40;;;;;;;14.68;100.00;101991.50;4881569;29;20469;-74
2021/10/07 14:45:35;;;;;;;19.35;6.78;;;;;;;14.22;100.00;101998.28;4869032;29;20478;-74
2021/10/07 14:48:21;;;;;;;17.15;6.38;;;;;;;14.52;100.00;101995.25;4881680;29;20076;-75
2021/10/07 14:51:07;;;;;;;26.80;6.28;;;;;;;14.33;100.00;101996.38;4881932;29;20031;-75
2021/10/07 14:53:55;;;;;;;25.50;6.63;;;;;;;14.34;100.00;101986.69;4881979;29;20108;-74
2021/10/07 14:56:41;;;;;;;20.38;6.88;;;;;;;14.47;100.00;101990.94;4881657;29;20363;-74
2021/10/07 14:59:26;;;;;;;17.42;6.85;;;;;;;14.43;100.00;101987.44;4882009;29;20033;-73
2021/10/07 15:02:12;;;;;;;23.95;6.97;;;;;;;14.09;100.00;101972.94;4881714;29;20037;-74
2021/10/07 15:04:59;;;;;;;21.05;7.82;;;;;;;14.04;100.00;101979.13;4869359;29;20033;-72
2021/10/07 15:07:45;;;;;;;23.77;7.40;;;;;;;14.50;100.00;101982.97;4881682;29;20390;-73
2021/10/07 15:10:30;;;;;;;19.40;6.80;;;;;;;14.13;100.00;101973.75;4882017;29;20032;-73
2021/10/07 15:13:17;;;;;;;18.33;6.90;;;;;;;14.09;100.00;101982.59;4881992;29;20076;-73
2021/10/07 15:16:03;;;;;;;20.70;6.90;;;;;;;14.03;100.00;101988.78;4882049;29;20052;-73
2021/10/07 15:18:50;;;;;;;22.85;7.22;;;;;;;14.02;100.00;101999.34;4880762;29;20024;-73
2021/10/07 15:21:39;;;;;;;22.13;6.75;;;;;;;13.96;100.00;102000.31;4882107;29;20032;-73
2021/10/07 15:24:25;;;;;;;22.23;7.03;;;;;;;13.99;100.00;101999.41;4881577;29;20121;-73
2021/10/07 15:27:10;;;;;;;23.65;9.55;;;;;;;13.93;100.00;102010.88;4881058;29;20099;-73